createdAt,value
2022-11-19T00:00:43.259Z,7.13
2022-11-19T00:05:49.744Z,8.33
2022-11-19T00:10:51.333Z,6.90
2022-11-19T00:15:52.991Z,8.27
2022-11-19T00:20:56.461Z,8.20
2022-11-19T00:26:07.727Z,7.90
2022-11-19T00:31:11.951Z,8.13
2022-11-19T00:36:15.441Z,7.93
2022-11-19T00:41:17.168Z,7.47
2022-11-19T00:46:20.293Z,7.83
2022-11-19T00:51:23.886Z,8.37
2022-11-19T00:56:27.859Z,8.27
2022-11-19T01:01:29.587Z,8.20
2022-11-19T01:06:31.214Z,7.87
2022-11-19T01:11:36.004Z,8.37
2022-11-19T01:16:40.610Z,8.70
2022-11-19T01:21:42.391Z,8.13
2022-11-19T01:26:46.002Z,8.20
2022-11-19T01:31:47.894Z,8.63
2022-11-19T01:36:49.577Z,8.50
2022-11-19T01:41:51.210Z,8.87
2022-11-19T01:46:52.867Z,9.00
2022-11-19T01:52:00.609Z,8.30
2022-11-19T01:57:08.723Z,8.27
2022-11-19T02:02:10.906Z,9.30
2022-11-19T02:07:13.374Z,9.50
2022-11-19T02:12:36.149Z,8.57
2022-11-19T02:17:49.635Z,8.97
2022-11-19T02:23:09.933Z,7.30
2022-11-19T02:28:53.463Z,7.60
2022-11-19T02:34:05.682Z,6.90
2022-11-19T02:39:26.578Z,7.63
2022-11-19T02:44:59.257Z,7.07
2022-11-19T02:50:11.405Z,6.67
2022-11-19T02:55:18.998Z,6.60
2022-11-19T03:00:40.147Z,7.27
2022-11-19T03:05:47.325Z,7.30
2022-11-19T03:11:13.303Z,6.10
2022-11-19T03:16:41.499Z,6.77
2022-11-19T03:21:51.122Z,6.20
2022-11-19T03:27:08.702Z,7.37
2022-11-19T03:32:16.386Z,7.10
2022-11-19T03:37:22.412Z,5.93
2022-11-19T03:42:27.122Z,6.60
2022-11-19T03:47:35.722Z,5.97
2022-11-19T03:52:37.442Z,6.63
2022-11-19T03:57:39.726Z,6.17
2022-11-19T04:02:41.386Z,6.77
2022-11-19T04:07:43.030Z,7.10
2022-11-19T04:12:44.768Z,6.93
2022-11-19T04:17:46.448Z,6.40
2022-11-19T04:22:51.262Z,7.33
2022-11-19T04:27:53.138Z,7.10
2022-11-19T04:32:54.745Z,6.53
2022-11-19T04:37:56.311Z,6.47
2022-11-19T04:42:57.978Z,6.00
2022-11-19T04:47:59.547Z,6.07
2022-11-19T04:53:01.211Z,5.77
2022-11-19T04:58:02.833Z,6.20
2022-11-19T05:03:04.433Z,6.50
2022-11-19T05:08:06.854Z,7.00
2022-11-19T05:13:08.425Z,6.80
2022-11-19T05:18:10.108Z,6.00
2022-11-19T05:23:11.686Z,4.93
2022-11-19T05:28:13.389Z,6.23
2022-11-19T05:33:14.977Z,6.67
2022-11-19T05:38:17.088Z,6.37
2022-11-19T05:43:18.639Z,7.30
2022-11-19T05:48:20.242Z,7.20
2022-11-19T05:53:21.987Z,7.37
2022-11-19T05:58:23.579Z,7.57
2022-11-19T06:03:25.647Z,6.80
2022-11-19T06:08:27.290Z,6.87
2022-11-19T06:13:28.951Z,7.37
2022-11-19T06:18:30.642Z,6.90
2022-11-19T06:23:32.206Z,6.47
2022-11-19T06:28:34.156Z,7.17
2022-11-19T06:33:35.719Z,8.03
2022-11-19T06:38:37.440Z,7.57
2022-11-19T06:43:39.101Z,7.80
2022-11-19T06:48:41.097Z,8.13
2022-11-19T06:53:42.670Z,8.70
2022-11-19T06:58:44.303Z,8.00
2022-11-19T07:03:45.878Z,8.40
2022-11-19T07:08:47.560Z,7.63
2022-11-19T07:13:59.983Z,7.63
2022-11-19T07:19:04.477Z,7.47
2022-11-19T07:24:08.331Z,7.07
2022-11-19T07:29:13.198Z,8.53
2022-11-19T07:34:14.820Z,8.90
2022-11-19T07:39:17.513Z,7.37
2022-11-19T07:44:19.479Z,5.80
2022-11-19T07:49:21.514Z,7.40
2022-11-19T07:54:24.562Z,6.07
2022-11-19T07:59:27.311Z,6.00
2022-11-19T08:04:29.263Z,5.60
2022-11-19T08:09:30.950Z,5.47
2022-11-19T08:14:32.548Z,4.63
2022-11-19T08:19:34.235Z,5.20
2022-11-19T08:24:35.810Z,5.20
2022-11-19T08:29:37.467Z,7.47
2022-11-19T08:34:39.142Z,5.20
2022-11-19T08:39:41.210Z,4.87
2022-11-19T08:44:42.870Z,5.30
2022-11-19T08:49:44.508Z,4.90
2022-11-19T08:54:46.156Z,4.40
2022-11-19T08:59:47.845Z,5.10
2022-11-19T09:04:49.443Z,4.50
2022-11-19T09:09:51.030Z,6.00
2022-11-19T09:14:52.625Z,6.00
2022-11-19T09:19:54.187Z,5.77
2022-11-19T09:24:55.768Z,5.83
2022-11-19T09:29:57.355Z,5.03
2022-11-19T09:34:59.930Z,6.13
2022-11-19T09:40:01.763Z,5.00
2022-11-19T09:45:09.022Z,5.27
2022-11-19T09:50:18.919Z,4.90
2022-11-19T09:55:33.375Z,4.10
2022-11-19T10:00:35.140Z,3.80
2022-11-19T10:05:48.408Z,3.90
2022-11-19T10:11:08.234Z,4.07
2022-11-19T10:16:31.130Z,4.70
2022-11-19T10:21:58.039Z,4.90
2022-11-19T10:27:08.469Z,5.63
2022-11-19T10:32:17.326Z,5.90
2022-11-19T10:37:22.685Z,5.10
2022-11-19T10:42:32.849Z,5.37
2022-11-19T10:47:41.252Z,4.83
2022-11-19T10:52:47.381Z,4.73
2022-11-19T10:57:52.293Z,5.73
2022-11-19T11:06:12.214Z,4.97
2022-11-19T11:11:57.782Z,5.70
2022-11-19T11:17:04.316Z,5.10
2022-11-19T11:22:05.958Z,4.17
2022-11-19T11:27:33.839Z,3.87
2022-11-19T11:32:35.518Z,3.80
2022-11-19T11:37:37.134Z,3.80
2022-11-19T11:42:39.022Z,3.93
2022-11-19T11:47:40.805Z,4.33
2022-11-19T11:52:46.269Z,4.37
2022-11-19T11:57:59.729Z,4.27
2022-11-19T12:03:16.209Z,4.17
2022-11-19T12:08:40.543Z,3.83
2022-11-19T12:14:05.399Z,3.50
2022-11-19T12:19:24.566Z,3.60
2022-11-19T12:24:35.497Z,3.50
2022-11-19T12:29:46.380Z,4.10
2022-11-19T12:35:08.251Z,3.90
2022-11-19T12:40:21.639Z,5.07
2022-11-19T12:45:52.156Z,3.90
2022-11-19T12:51:15.290Z,4.00
2022-11-19T12:56:44.361Z,8.27
2022-11-19T13:01:50.663Z,5.17
2022-11-19T13:07:02.952Z,4.23
2022-11-19T13:12:08.941Z,4.53
2022-11-19T13:17:26.322Z,5.33
2022-11-19T13:22:37.745Z,38.70
2022-11-19T13:27:39.634Z,26.87
2022-11-19T13:32:41.159Z,9.90
2022-11-19T13:38:04.241Z,5.47
2022-11-19T13:43:34.683Z,5.17
2022-11-19T13:48:44.248Z,5.50
2022-11-19T13:53:46.697Z,5.30
2022-11-19T13:58:55.045Z,5.53
2022-11-19T14:04:14.691Z,4.00
2022-11-19T14:09:23.299Z,4.80
2022-11-19T14:14:49.687Z,5.40
2022-11-19T14:20:13.561Z,4.70
2022-11-19T14:25:59.811Z,4.77
2022-11-19T14:31:04.974Z,5.80
2022-11-19T14:36:17.594Z,4.37
2022-11-19T14:41:42.742Z,4.67
2022-11-19T14:46:49.796Z,4.60
2022-11-19T14:51:54.309Z,4.70
2022-11-19T14:57:06.184Z,6.00
2022-11-19T15:02:24.870Z,7.37
2022-11-19T15:07:40.108Z,7.00
2022-11-19T15:12:44.598Z,7.10
2022-11-19T15:18:08.084Z,7.17
2022-11-19T15:23:31.224Z,5.80
2022-11-19T15:28:40.962Z,6.67
2022-11-19T15:33:53.630Z,6.80
2022-11-19T15:39:21.120Z,6.07
2022-11-19T15:44:26.593Z,5.97
2022-11-19T15:49:34.209Z,6.63
2022-11-19T15:54:37.319Z,7.30
2022-11-19T15:59:40.364Z,7.60
2022-11-19T16:04:42.017Z,8.20
2022-11-19T16:09:43.730Z,8.80
2022-11-19T16:15:13.208Z,8.73
2022-11-19T16:20:20.637Z,6.10
2022-11-19T16:25:25.162Z,8.73
2022-11-19T16:30:29.851Z,7.67
2022-11-19T16:35:32.742Z,8.17
2022-11-19T16:40:54.566Z,10.00
2022-11-19T16:45:57.668Z,7.80
2022-11-19T16:51:36.713Z,5.07
2022-11-19T16:56:45.082Z,4.60
2022-11-19T17:01:56.205Z,4.97
2022-11-19T17:06:59.136Z,10.90
2022-11-19T17:12:19.074Z,8.07
2022-11-19T17:17:40.309Z,4.73
2022-11-19T17:22:42.542Z,5.10
2022-11-19T17:27:44.139Z,5.40
2022-11-19T17:32:48.529Z,5.07
2022-11-19T17:37:50.162Z,6.00
2022-11-19T17:43:10.222Z,5.40
2022-11-19T17:48:21.835Z,5.67
2022-11-19T17:53:24.037Z,6.63
2022-11-19T17:58:25.767Z,9.73
2022-11-19T18:03:27.314Z,10.33
2022-11-19T18:08:28.963Z,10.60
2022-11-19T18:13:32.782Z,11.10
2022-11-19T18:18:34.371Z,10.03
2022-11-19T18:23:36.019Z,8.83
2022-11-19T18:28:38.373Z,6.73
2022-11-19T18:33:41.745Z,7.00
2022-11-19T18:38:44.007Z,6.20
2022-11-19T18:44:04.587Z,6.47
2022-11-19T18:49:06.187Z,6.60
2022-11-19T18:54:07.747Z,7.93
2022-11-19T18:59:11.487Z,7.60
2022-11-19T19:04:14.691Z,10.03
2022-11-19T19:09:20.426Z,7.63
2022-11-19T19:14:22.757Z,6.20
2022-11-19T19:19:24.545Z,6.27
2022-11-19T19:24:26.641Z,7.37
2022-11-19T19:29:28.850Z,7.10
2022-11-19T19:34:30.671Z,9.07
2022-11-19T19:39:32.529Z,8.70
2022-11-19T19:44:34.212Z,7.80
2022-11-19T19:49:38.876Z,8.17
2022-11-19T19:54:44.019Z,9.10
2022-11-19T19:59:45.758Z,9.13
2022-11-19T20:04:47.350Z,8.17
2022-11-19T20:09:49.020Z,8.03
2022-11-19T20:14:50.612Z,10.27
2022-11-19T20:19:52.298Z,9.17
2022-11-19T20:24:53.974Z,8.83
2022-11-19T20:29:55.612Z,9.07
2022-11-19T20:34:57.235Z,8.97
2022-11-19T20:39:58.834Z,9.77
2022-11-19T20:45:00.647Z,9.37
2022-11-19T20:50:02.369Z,9.17
2022-11-19T20:55:06.767Z,9.73
2022-11-19T21:00:09.190Z,11.00
2022-11-19T21:05:10.938Z,9.93
2022-11-19T21:10:12.655Z,9.50
2022-11-19T21:15:14.742Z,11.27
2022-11-19T21:20:17.234Z,10.13
2022-11-19T21:25:19.042Z,11.17
2022-11-19T21:30:20.786Z,11.17
2022-11-19T21:35:22.399Z,13.23
2022-11-19T21:40:24.130Z,13.17
2022-11-19T21:45:27.277Z,14.37
2022-11-19T21:50:28.958Z,14.93
2022-11-19T21:55:31.959Z,13.57
2022-11-19T22:00:34.545Z,13.73
2022-11-19T22:05:36.358Z,14.97
2022-11-19T22:10:42.784Z,14.87
2022-11-19T22:15:46.956Z,12.10
2022-11-19T22:20:50.546Z,11.63
2022-11-19T22:25:52.142Z,11.97
2022-11-19T22:30:54.862Z,10.83
2022-11-19T22:36:05.027Z,10.57
2022-11-19T22:41:15.460Z,11.33
2022-11-19T22:46:18.550Z,10.00
2022-11-19T22:51:24.062Z,10.10
2022-11-19T22:56:27.947Z,10.13
2022-11-19T23:01:32.257Z,11.43
2022-11-19T23:06:35.704Z,11.43
2022-11-19T23:11:56.052Z,12.10
2022-11-19T23:16:57.855Z,10.93
2022-11-19T23:21:59.582Z,11.80
2022-11-19T23:27:01.191Z,13.50
2022-11-19T23:32:02.855Z,13.87
2022-11-19T23:37:04.538Z,12.83
2022-11-19T23:42:06.250Z,14.90
2022-11-19T23:47:08.491Z,13.60
2022-11-19T23:52:10.139Z,14.67
2022-11-19T23:57:11.723Z,13.60
